createdAt,value
2022-08-20T00:02:10.432Z,-23759.19
2022-08-20T00:04:57.498Z,-23755.53
2022-08-20T00:07:44.649Z,-23751.91
2022-08-20T00:10:37.049Z,-23755.06
2022-08-20T00:13:32.451Z,-23757.97
2022-08-20T00:16:22.824Z,-23757.47
2022-08-20T00:19:10.073Z,-23754.81
2022-08-20T00:21:58.517Z,-23756.50
2022-08-20T00:24:45.571Z,-23757.47
2022-08-20T00:27:32.710Z,-23755.78
2022-08-20T00:30:20.097Z,-23757.47
2022-08-20T00:33:10.176Z,-23759.19
2022-08-20T00:35:57.555Z,-23759.19
2022-08-20T00:38:46.619Z,-23754.56
2022-08-20T00:41:33.632Z,-23762.34
2022-08-20T00:44:22.797Z,-23769.13
2022-08-20T00:47:09.668Z,-23760.16
2022-08-20T00:49:56.680Z,-23761.84
2022-08-20T00:52:49.338Z,-23754.56
2022-08-20T00:55:37.374Z,-23761.13
2022-08-20T00:58:24.907Z,-23763.53
2022-08-20T01:01:12.428Z,-23767.69
2022-08-20T01:03:59.524Z,-23773.97
2022-08-20T01:06:47.895Z,-23768.88
2022-08-20T01:09:58.467Z,-23760.88
2022-08-20T01:12:47.063Z,-23769.13
2022-08-20T01:15:42.928Z,-23765.25
2022-08-20T01:18:31.342Z,-23766.69
2022-08-20T01:21:25.892Z,-23772.53
2022-08-20T01:24:22.467Z,-23767.19
2022-08-20T01:27:10.191Z,-23770.84
2022-08-20T01:29:57.223Z,-23767.44
2022-08-20T01:32:44.167Z,-23768.41
2022-08-20T01:35:36.852Z,-23772.03
2022-08-20T01:38:23.976Z,-23776.91
2022-08-20T01:41:16.471Z,-23766.94
2022-08-20T01:44:03.826Z,-23772.53
2022-08-20T01:46:52.680Z,-23779.81
2022-08-20T01:49:44.110Z,-23780.78
2022-08-20T01:52:43.047Z,-23778.84
2022-08-20T01:55:31.496Z,-23774.72
2022-08-20T01:58:18.767Z,-23775.44
2022-08-20T02:01:06.213Z,-23776.19
2022-08-20T02:03:54.478Z,-23778.84
2022-08-20T02:06:56.768Z,-23774.97
2022-08-20T02:09:45.305Z,-23778.84
2022-08-20T02:12:32.703Z,-23771.81
2022-08-20T02:15:19.828Z,-23771.06
2022-08-20T02:18:21.605Z,-23771.81
2022-08-20T02:21:08.729Z,-23764.28
2022-08-20T02:23:55.981Z,-23763.31
2022-08-20T02:26:44.264Z,-23746.81
2022-08-20T02:29:31.170Z,-23748.75
2022-08-20T02:32:24.928Z,-23747.78
2022-08-20T02:35:21.234Z,-23743.41
2022-08-20T02:38:08.986Z,-23742.69
2022-08-20T02:40:55.966Z,-23739.53
2022-08-20T02:43:43.947Z,-23738.06
2022-08-20T02:46:31.227Z,-23735.66
2022-08-20T02:49:19.319Z,-23731.75
2022-08-20T02:52:06.332Z,-23728.84
2022-08-20T02:54:53.582Z,-23728.84
2022-08-20T02:57:40.695Z,-23729.34
2022-08-20T03:00:34.998Z,-23733.44
2022-08-20T03:03:26.037Z,-23733.22
2022-08-20T03:06:13.787Z,-23734.19
2022-08-20T03:09:00.938Z,-23734.44
2022-08-20T03:11:48.021Z,-23736.13
2022-08-20T03:14:35.708Z,-23736.38
2022-08-20T03:17:22.752Z,-23734.19
2022-08-20T03:20:10.613Z,-23733.22
2022-08-20T03:22:59.080Z,-23733.22
2022-08-20T03:25:46.888Z,-23725.44
2022-08-20T03:28:34.818Z,-23728.34
2022-08-20T03:31:21.750Z,-23735.16
2022-08-20T03:34:08.862Z,-23741.47
2022-08-20T03:36:55.773Z,-23743.41
2022-08-20T03:39:43.027Z,-23740.00
2022-08-20T03:42:29.951Z,-23734.66
2022-08-20T03:45:20.399Z,-23735.41
2022-08-20T03:48:10.378Z,-23737.56
2022-08-20T03:51:00.832Z,-23737.09
2022-08-20T03:53:47.910Z,-23736.13
2022-08-20T03:56:35.027Z,-23728.84
2022-08-20T03:59:21.983Z,-23732.00
2022-08-20T04:02:09.457Z,-23734.19
2022-08-20T04:04:56.412Z,-23725.44
2022-08-20T04:07:44.907Z,-23724.47
2022-08-20T04:10:32.179Z,-23724.97
2022-08-20T04:13:22.753Z,-23734.44
2022-08-20T04:16:14.425Z,-23734.19
2022-08-20T04:19:03.659Z,-23739.03
2022-08-20T04:21:50.625Z,-23730.53
2022-08-20T04:24:37.631Z,-23736.63
2022-08-20T04:27:24.528Z,-23736.63
2022-08-20T04:30:13.159Z,-23739.03
2022-08-20T04:33:00.614Z,-23739.53
2022-08-20T04:35:48.448Z,-23739.03
2022-08-20T04:38:47.974Z,-23735.16
2022-08-20T04:41:37.207Z,-23729.81
2022-08-20T04:44:24.119Z,-23736.63
2022-08-20T04:47:11.272Z,-23742.19
2022-08-20T04:50:00.468Z,-23746.81
2022-08-20T04:52:50.532Z,-23749.47
2022-08-20T04:55:41.766Z,-23754.31
2022-08-20T04:58:33.740Z,-23750.69
2022-08-20T05:01:20.727Z,-23753.13
2022-08-20T05:04:07.848Z,-23755.06
2022-08-20T05:06:55.686Z,-23748.25
2022-08-20T05:09:44.048Z,-23744.38
2022-08-20T05:12:31.140Z,-23732.72
2022-08-20T05:15:18.476Z,-23726.66
2022-08-20T05:18:07.970Z,-23724.72
2022-08-20T05:20:59.365Z,-23718.91
2022-08-20T05:23:46.515Z,-23719.38
2022-08-20T05:26:35.541Z,-23726.41
2022-08-20T05:29:23.330Z,-23726.41
2022-08-20T05:32:11.998Z,-23726.91
2022-08-20T05:35:00.612Z,-23721.81
2022-08-20T05:37:47.655Z,-23727.41
2022-08-20T05:40:35.163Z,-23736.38
2022-08-20T05:43:22.714Z,-23742.19
2022-08-20T05:46:09.640Z,-23736.13
2022-08-20T05:48:59.340Z,-23746.31
2022-08-20T05:51:47.871Z,-23745.34
2022-08-20T05:54:35.082Z,-23755.31
2022-08-20T05:57:23.223Z,-23749.72
2022-08-20T06:00:13.702Z,-23747.78
2022-08-20T06:03:19.057Z,-23738.06
2022-08-20T06:06:18.409Z,-23732.25
2022-08-20T06:09:31.933Z,-23738.56
2022-08-20T06:12:19.752Z,-23739.53
2022-08-20T06:15:07.310Z,-23746.09
2022-08-20T06:17:58.443Z,-23746.81
2022-08-20T06:20:46.095Z,-23743.16
2022-08-20T06:23:54.189Z,-23739.03
2022-08-20T06:26:40.175Z,-23738.06
2022-08-20T06:29:28.370Z,-23737.09
2022-08-20T06:32:16.098Z,-23747.28
2022-08-20T06:35:06.065Z,-23744.38
2022-08-20T06:37:53.917Z,-23748.50
2022-08-20T06:40:41.230Z,-23731.75
2022-08-20T06:43:28.115Z,-23731.75
2022-08-20T06:46:15.195Z,-23743.88
2022-08-20T06:49:03.904Z,-23752.63
2022-08-20T06:51:52.083Z,-23749.22
2022-08-20T06:54:39.153Z,-23757.72
2022-08-20T06:57:26.352Z,-23760.88
2022-08-20T07:00:19.724Z,-23760.41
2022-08-20T07:03:07.050Z,-23761.38
2022-08-20T07:05:54.083Z,-23753.59
2022-08-20T07:08:41.121Z,-23761.38
2022-08-20T07:11:29.002Z,-23766.22
2022-08-20T07:14:19.693Z,-23761.13
2022-08-20T07:17:07.011Z,-23763.31
2022-08-20T07:19:59.297Z,-23750.44
2022-08-20T07:22:46.189Z,-23748.50
2022-08-20T07:25:33.910Z,-23748.25
2022-08-20T07:28:24.265Z,-23741.97
2022-08-20T07:31:31.346Z,-23748.03
2022-08-20T07:34:19.569Z,-23763.78
2022-08-20T07:37:06.751Z,-23761.38
2022-08-20T07:39:53.884Z,-23767.19
2022-08-20T07:42:41.175Z,-23770.34
2022-08-20T07:45:30.030Z,-23775.44
2022-08-20T07:48:30.922Z,-23769.38
2022-08-20T07:51:20.845Z,-23754.81
2022-08-20T07:54:07.858Z,-23769.13
2022-08-20T07:56:55.575Z,-23780.28
2022-08-20T07:59:42.639Z,-23789.03
2022-08-20T08:02:29.552Z,-23789.75
2022-08-20T08:05:17.914Z,-23783.69
2022-08-20T08:08:08.665Z,-23787.59
2022-08-20T08:11:00.183Z,-23786.84
2022-08-20T08:13:47.534Z,-23793.88
2022-08-20T08:16:35.763Z,-23797.03
2022-08-20T08:19:25.007Z,-23804.81
2022-08-20T08:22:14.423Z,-23803.34
2022-08-20T08:25:02.724Z,-23793.88
2022-08-20T08:27:49.975Z,-23793.41
2022-08-20T08:30:40.192Z,-23792.94
2022-08-20T08:33:33.738Z,-23790.97
2022-08-20T08:36:20.733Z,-23803.84
2022-08-20T08:39:07.877Z,-23794.13
2022-08-20T08:41:57.318Z,-23797.28
2022-08-20T08:44:44.373Z,-23799.97
2022-08-20T08:47:37.866Z,-23801.66
2022-08-20T08:50:52.884Z,-23804.06
2022-08-20T08:53:56.975Z,-23806.50
2022-08-20T08:56:49.962Z,-23807.47
2022-08-20T08:59:58.191Z,-23807.00
2022-08-20T09:03:04.985Z,-23816.22
2022-08-20T09:05:59.834Z,-23815.00
2022-08-20T09:08:50.899Z,-23819.38
2022-08-20T09:11:50.220Z,-23826.44
2022-08-20T09:14:37.567Z,-23840.50
2022-08-20T09:17:25.000Z,-23838.06
2022-08-20T09:20:12.166Z,-23842.91
2022-08-20T09:22:59.250Z,-23841.47
2022-08-20T09:25:46.473Z,-23842.44
2022-08-20T09:28:35.034Z,-23841.72
2022-08-20T09:31:24.560Z,-23840.50
2022-08-20T09:34:11.546Z,-23834.19
2022-08-20T09:36:58.953Z,-23824.47
2022-08-20T09:39:45.894Z,-23832.72
2022-08-20T09:42:40.412Z,-23833.69
2022-08-20T09:45:28.375Z,-23832.47
2022-08-20T09:48:15.543Z,-23832.72
2022-08-20T09:51:02.631Z,-23834.66
2022-08-20T09:53:50.297Z,-23830.06
2022-08-20T09:56:37.234Z,-23846.31
2022-08-20T09:59:24.783Z,-23846.31
2022-08-20T10:02:11.772Z,-23852.63
2022-08-20T10:04:58.967Z,-23857.00
2022-08-20T10:07:45.967Z,-23854.09
2022-08-20T10:10:33.419Z,-23872.06
2022-08-20T10:13:20.441Z,-23875.94
2022-08-20T10:16:07.497Z,-23866.72
2022-08-20T10:18:54.383Z,-23865.75
2022-08-20T10:21:41.659Z,-23868.16
2022-08-20T10:24:29.635Z,-23878.63
2022-08-20T10:27:16.623Z,-23874.97
2022-08-20T10:30:05.711Z,-23872.53
2022-08-20T10:32:52.653Z,-23875.69
2022-08-20T10:35:39.551Z,-23875.22
2022-08-20T10:38:26.623Z,-23872.06
2022-08-20T10:41:13.542Z,-23880.31
2022-08-20T10:44:00.558Z,-23886.13
2022-08-20T10:46:47.491Z,-23883.69
2022-08-20T10:49:34.887Z,-23876.44
2022-08-20T10:52:23.059Z,-23868.16
2022-08-20T10:55:10.571Z,-23879.81
2022-08-20T10:57:57.571Z,-23892.69
2022-08-20T11:00:45.932Z,-23899.25
2022-08-20T11:03:33.012Z,-23907.25
2022-08-20T11:06:20.074Z,-23886.13
2022-08-20T11:09:07.350Z,-23891.00
2022-08-20T11:11:56.862Z,-23883.69
2022-08-20T11:14:44.144Z,-23894.38
2022-08-20T11:17:34.183Z,-23891.97
2022-08-20T11:20:26.411Z,-23914.53
2022-08-20T11:23:13.634Z,-23923.28
2022-08-20T11:26:00.858Z,-23930.09
2022-08-20T11:28:48.168Z,-23936.16
2022-08-20T11:31:35.171Z,-23933.25
2022-08-20T11:34:22.238Z,-23927.41
2022-08-20T11:37:09.149Z,-23911.38
2022-08-20T11:39:56.345Z,-23914.06
2022-08-20T11:42:58.627Z,-23925.72
2022-08-20T11:45:54.135Z,-23918.69
2022-08-20T11:48:41.299Z,-23913.31
2022-08-20T11:51:28.531Z,-23908.00
2022-08-20T11:54:15.479Z,-23907.25
2022-08-20T11:57:02.652Z,-23919.16
2022-08-20T11:59:53.949Z,-23929.34
2022-08-20T12:02:42.294Z,-23919.63
2022-08-20T12:05:32.369Z,-23942.22
2022-08-20T12:08:26.772Z,-23922.06
2022-08-20T12:11:15.113Z,-23931.78
2022-08-20T12:14:02.170Z,-23926.94
2022-08-20T12:16:49.075Z,-23921.59
2022-08-20T12:19:41.051Z,-23934.94
2022-08-20T12:22:28.095Z,-23934.22
2022-08-20T12:25:15.728Z,-23952.66
2022-08-20T12:28:05.091Z,-23956.06
2022-08-20T12:30:52.151Z,-23957.53
2022-08-20T12:33:39.114Z,-23968.44
2022-08-20T12:36:26.171Z,-23974.28
2022-08-20T12:39:13.118Z,-23977.19
2022-08-20T12:42:03.155Z,-23961.19
2022-08-20T12:44:50.545Z,-23965.53
2022-08-20T12:47:40.409Z,-23958.50
2022-08-20T12:50:31.292Z,-23966.75
2022-08-20T12:53:18.966Z,-23978.41
2022-08-20T12:56:06.226Z,-23984.25
2022-08-20T12:58:53.415Z,-23985.22
2022-08-20T13:01:40.391Z,-23953.16
2022-08-20T13:04:27.594Z,-23962.88
2022-08-20T13:07:15.453Z,-23970.16
2022-08-20T13:10:04.941Z,-23979.84
2022-08-20T13:12:52.143Z,-23990.06
2022-08-20T13:15:39.414Z,-23988.84
2022-08-20T13:18:26.329Z,-23994.91
2022-08-20T13:21:13.428Z,-23987.38
2022-08-20T13:24:00.731Z,-23993.00
2022-08-20T13:26:48.266Z,-23997.84
2022-08-20T13:29:35.468Z,-24003.19
2022-08-20T13:32:23.630Z,-24018.25
2022-08-20T13:35:12.154Z,-24018.72
2022-08-20T13:37:59.227Z,-24030.63
2022-08-20T13:40:47.482Z,-24029.16
2022-08-20T13:43:36.104Z,-24028.94
2022-08-20T13:46:23.023Z,-24015.31
2022-08-20T13:49:10.116Z,-24007.53
2022-08-20T13:51:57.061Z,-24018.25
2022-08-20T13:54:46.047Z,-24008.75
2022-08-20T13:57:33.323Z,-24003.41
2022-08-20T14:00:31.833Z,-23996.38
2022-08-20T14:03:20.106Z,-23994.91
2022-08-20T14:06:12.711Z,-24008.53
2022-08-20T14:08:59.736Z,-24014.84
2022-08-20T14:11:46.835Z,-24027.94
2022-08-20T14:14:33.985Z,-24024.78
2022-08-20T14:17:29.806Z,-24017.25
2022-08-20T14:20:20.653Z,-24005.13
2022-08-20T14:23:07.735Z,-24013.13
2022-08-20T14:25:54.682Z,-24007.06
2022-08-20T14:28:42.250Z,-24004.63
2022-08-20T14:31:29.165Z,-24009.50
2022-08-20T14:34:16.298Z,-24014.59
2022-08-20T14:37:24.827Z,-24013.88
2022-08-20T14:40:14.906Z,-24018.72
2022-08-20T14:43:02.336Z,-24022.13
2022-08-20T14:45:49.370Z,-24045.19
2022-08-20T14:48:36.395Z,-24037.19
2022-08-20T14:51:23.501Z,-24047.88
2022-08-20T14:54:10.456Z,-24046.41
2022-08-20T14:57:02.064Z,-24056.63
2022-08-20T14:59:52.798Z,-24047.63
2022-08-20T15:02:39.928Z,-24050.53
2022-08-20T15:05:27.071Z,-24049.81
2022-08-20T15:08:14.200Z,-24057.59
2022-08-20T15:11:01.110Z,-24055.16
2022-08-20T15:13:48.195Z,-24055.88
2022-08-20T15:16:35.323Z,-24052.00
2022-08-20T15:19:23.136Z,-24056.63
2022-08-20T15:22:10.059Z,-24059.28
2022-08-20T15:24:57.710Z,-24065.84
2022-08-20T15:27:45.299Z,-24069.72
2022-08-20T15:30:33.596Z,-24066.09
2022-08-20T15:33:20.498Z,-24069.00
2022-08-20T15:36:09.964Z,-24063.66
2022-08-20T15:38:57.012Z,-24067.56
2022-08-20T15:41:44.183Z,-24070.72
2022-08-20T15:44:31.230Z,-24077.50
2022-08-20T15:47:35.708Z,-24078.47
2022-08-20T15:50:35.475Z,-24076.28
2022-08-20T15:53:40.237Z,-24076.78
2022-08-20T15:56:35.950Z,-24073.63
2022-08-20T15:59:25.858Z,-24074.09
2022-08-20T16:02:42.537Z,-24063.41
2022-08-20T16:05:45.088Z,-24063.66
2022-08-20T16:08:34.763Z,-24059.53
2022-08-20T16:11:32.574Z,-24073.38
2022-08-20T16:14:26.536Z,-24072.16
2022-08-20T16:17:30.803Z,-24077.75
2022-08-20T16:20:35.309Z,-24064.13
2022-08-20T16:23:30.923Z,-24079.94
2022-08-20T16:27:04.133Z,-24086.25
2022-08-20T16:30:04.375Z,-24086.97
2022-08-20T16:33:03.024Z,-24078.22
2022-08-20T16:36:06.754Z,-24075.31
2022-08-20T16:39:02.572Z,-24087.22
2022-08-20T16:41:51.958Z,-24090.63
2022-08-20T16:44:46.312Z,-24100.81
2022-08-20T16:47:38.278Z,-24101.31
2022-08-20T16:50:39.759Z,-24103.50
2022-08-20T16:53:28.046Z,-24113.94
2022-08-20T16:56:15.000Z,-24095.47
2022-08-20T16:59:07.959Z,-24083.81
2022-08-20T17:02:10.643Z,-24091.09
2022-08-20T17:05:02.231Z,-24093.28
2022-08-20T17:07:55.935Z,-24082.34
2022-08-20T17:10:59.907Z,-24078.00
2022-08-20T17:13:48.887Z,-24043.50
2022-08-20T17:16:48.183Z,-24035.22
2022-08-20T17:19:35.154Z,-24035.72
2022-08-20T17:22:23.380Z,-24056.13
2022-08-20T17:25:19.207Z,-24054.69
2022-08-20T17:28:17.953Z,-24043.50
2022-08-20T17:31:05.054Z,-24029.91
2022-08-20T17:33:52.078Z,-24035.00
2022-08-20T17:37:03.108Z,-24034.28
2022-08-20T17:39:53.126Z,-24040.34
2022-08-20T17:42:53.697Z,-24043.50
2022-08-20T17:45:44.953Z,-24045.19
2022-08-20T17:48:43.846Z,-24037.44
2022-08-20T17:51:36.694Z,-24049.31
2022-08-20T17:54:29.914Z,-24055.63
2022-08-20T17:57:21.348Z,-24051.03
2022-08-20T18:00:14.938Z,-24035.47
2022-08-20T18:03:26.485Z,-24045.94
2022-08-20T18:06:30.873Z,-24032.56
2022-08-20T18:09:34.996Z,-24014.84
2022-08-20T18:12:33.978Z,-23995.88
2022-08-20T18:15:25.809Z,-23980.84
2022-08-20T18:18:35.303Z,-23976.47
2022-08-20T18:21:40.914Z,-23974.03
2022-08-20T18:24:37.904Z,-23966.50
2022-08-20T18:27:28.228Z,-23963.34
2022-08-20T18:30:18.546Z,-23962.88
2022-08-20T18:33:08.773Z,-23948.78
2022-08-20T18:36:34.824Z,-23943.94
2022-08-20T18:39:29.874Z,-23940.28
2022-08-20T18:42:37.703Z,-23941.25
2022-08-20T18:45:35.749Z,-23943.44
2022-08-20T18:48:24.959Z,-23935.66
2022-08-20T18:51:12.917Z,-23942.72
2022-08-20T18:54:00.078Z,-23936.16
2022-08-20T18:56:47.113Z,-23931.31
2022-08-20T18:59:42.076Z,-23927.66
2022-08-20T19:02:33.331Z,-23921.59
2022-08-20T19:05:53.577Z,-23922.56
2022-08-20T19:09:08.713Z,-23922.06
2022-08-20T19:11:55.892Z,-23926.44
2022-08-20T19:14:45.991Z,-23926.44
2022-08-20T19:17:49.721Z,-23916.97
2022-08-20T19:20:40.036Z,-23919.16
2022-08-20T19:23:31.721Z,-23914.53
2022-08-20T19:26:25.798Z,-23914.78
2022-08-20T19:29:17.443Z,-23901.66
2022-08-20T19:32:07.347Z,-23900.22
2022-08-20T19:35:00.443Z,-23899.75
2022-08-20T19:37:51.311Z,-23895.59
2022-08-20T19:40:40.131Z,-23894.88
2022-08-20T19:43:30.554Z,-23889.53
2022-08-20T19:46:28.971Z,-23888.56
2022-08-20T19:49:58.531Z,-23884.44
2022-08-20T19:53:10.910Z,-23878.63
2022-08-20T19:56:19.169Z,-23873.50
2022-08-20T19:59:09.655Z,-23874.47
2022-08-20T20:02:00.200Z,-23879.81
2022-08-20T20:04:55.524Z,-23871.56
2022-08-20T20:07:57.164Z,-23866.97
2022-08-20T20:10:49.795Z,-23867.44
2022-08-20T20:13:39.984Z,-23861.84
2022-08-20T20:16:30.500Z,-23866.22
2022-08-20T20:19:27.129Z,-23858.47
2022-08-20T20:22:27.052Z,-23866.72
2022-08-20T20:25:21.365Z,-23867.19
2022-08-20T20:28:14.343Z,-23868.91
2022-08-20T20:31:09.247Z,-23873.03
2022-08-20T20:34:00.648Z,-23866.22
2022-08-20T20:36:48.190Z,-23869.38
2022-08-20T20:39:44.544Z,-23867.19
2022-08-20T20:42:31.949Z,-23867.19
2022-08-20T20:45:19.853Z,-23866.22
2022-08-20T20:48:21.871Z,-23861.38
2022-08-20T20:51:28.859Z,-23854.81
2022-08-20T20:54:29.373Z,-23854.56
2022-08-20T20:57:19.411Z,-23852.88
2022-08-20T21:00:24.516Z,-23842.91
2022-08-20T21:03:12.287Z,-23835.16
2022-08-20T21:05:59.263Z,-23829.34
2022-08-20T21:08:46.375Z,-23830.78
2022-08-20T21:11:33.458Z,-23833.94
2022-08-20T21:14:20.459Z,-23833.69
2022-08-20T21:17:11.856Z,-23835.63
2022-08-20T21:20:02.077Z,-23832.00
2022-08-20T21:22:49.197Z,-23830.78
2022-08-20T21:25:37.001Z,-23826.19
2022-08-20T21:28:23.968Z,-23828.13
2022-08-20T21:31:15.551Z,-23830.53
2022-08-20T21:34:02.523Z,-23829.34
2022-08-20T21:36:50.128Z,-23828.84
2022-08-20T21:39:37.257Z,-23826.91
2022-08-20T21:42:29.362Z,-23822.78
2022-08-20T21:45:18.615Z,-23821.06
2022-08-20T21:48:10.656Z,-23829.09
2022-08-20T21:50:57.592Z,-23832.72
2022-08-20T21:53:44.618Z,-23825.44
2022-08-20T21:56:33.774Z,-23829.09
2022-08-20T21:59:21.333Z,-23824.94
2022-08-20T22:02:08.849Z,-23831.28
2022-08-20T22:04:56.460Z,-23832.25
2022-08-20T22:07:43.504Z,-23829.34
2022-08-20T22:10:30.783Z,-23819.63
2022-08-20T22:13:17.815Z,-23810.63
2022-08-20T22:16:07.758Z,-23807.25
2022-08-20T22:18:54.784Z,-23805.28
2022-08-20T22:21:41.798Z,-23808.94
2022-08-20T22:24:29.599Z,-23808.94
2022-08-20T22:27:16.738Z,-23800.69
2022-08-20T22:30:05.166Z,-23797.28
2022-08-20T22:32:55.980Z,-23782.72
2022-08-20T22:35:53.723Z,-23775.44
2022-08-20T22:38:40.733Z,-23780.78
2022-08-20T22:41:28.102Z,-23772.03
2022-08-20T22:44:15.129Z,-23772.03
2022-08-20T22:47:06.855Z,-23762.59
2022-08-20T22:49:56.697Z,-23758.69
2022-08-20T22:52:45.395Z,-23760.16
2022-08-20T22:55:32.754Z,-23758.94
2022-08-20T22:58:20.316Z,-23754.09
2022-08-20T23:01:19.249Z,-23752.63
2022-08-20T23:04:25.252Z,-23756.28
2022-08-20T23:07:13.613Z,-23754.81
2022-08-20T23:10:00.684Z,-23756.28
2022-08-20T23:12:47.704Z,-23762.09
2022-08-20T23:15:41.406Z,-23758.69
2022-08-20T23:18:32.850Z,-23745.34
2022-08-20T23:21:19.875Z,-23736.38
2022-08-20T23:24:07.103Z,-23737.56
2022-08-20T23:27:02.119Z,-23746.31
2022-08-20T23:29:49.232Z,-23744.88
2022-08-20T23:32:36.200Z,-23741.72
2022-08-20T23:35:23.906Z,-23735.66
2022-08-20T23:38:16.845Z,-23734.44
2022-08-20T23:41:04.022Z,-23728.34
2022-08-20T23:43:50.951Z,-23722.28
2022-08-20T23:46:39.064Z,-23712.09
2022-08-20T23:49:27.588Z,-23713.06
2022-08-20T23:52:14.686Z,-23714.28
2022-08-20T23:55:01.694Z,-23716.47
2022-08-20T23:57:50.405Z,-23710.88
